Time;durP1;ratioP1;P1;durP2;ratioP2;P2;SDS_P1;SDS_P2;PMS_P1;PMS_P2;Temp;Humidity;BMP_temperature;BMP_pressure;BME280_temperature;BME280_humidity;BME280_pressure;Samples;Min_cycle;Max_cycle;Signal;HPM_P1;HPM_P2
2021/12/07 00:00:36;;;;;;;0.28;0.22;;;10.60;90.00;;;;;;5053508;28;20127;-76
2021/12/07 00:03:02;;;;;;;0.13;0.10;;;10.60;90.00;;;;;;5054693;28;20386;-76
2021/12/07 00:05:27;;;;;;;0.47;0.35;;;10.60;90.00;;;;;;5055084;28;20048;-76
2021/12/07 00:14:37;;;;;;;0.20;0.20;;;10.70;89.80;;;;;;5014799;28;20025;-76
2021/12/07 00:17:04;;;;;;;0.35;0.28;;;10.70;89.50;;;;;;5015913;28;20041;-75
2021/12/07 00:19:31;;;;;;;0.88;0.88;;;10.70;89.60;;;;;;5015092;28;20034;-76
2021/12/07 00:21:56;;;;;;;0.20;0.20;;;10.70;89.70;;;;;;4997689;28;20037;-76
2021/12/07 00:24:22;;;;;;;0.57;0.32;;;10.70;89.70;;;;;;5030318;28;20106;-76
2021/12/07 00:26:48;;;;;;;0.65;0.40;;;10.70;90.10;;;;;;5032214;28;20056;-76
2021/12/07 00:29:14;;;;;;;0.10;0.10;;;10.70;90.10;;;;;;5034607;28;20029;-77
2021/12/07 00:31:52;;;;;;;0.57;0.57;;;10.80;90.20;;;;;;5049902;28;20029;-76
2021/12/07 00:34:40;;;;;;;0.65;0.30;;;10.90;90.20;;;;;;5035054;28;20033;-76
2021/12/07 00:37:06;;;;;;;0.20;0.20;;;10.90;90.10;;;;;;5032852;28;20025;-75
2021/12/07 00:39:32;;;;;;;0.25;0.20;;;11.00;90.00;;;;;;5032788;28;20045;-75
2021/12/07 00:41:59;;;;;;;0.00;0.00;;;11.00;89.70;;;;;;5034508;28;20022;-76
2021/12/07 00:44:27;;;;;;;0.20;0.10;;;11.00;89.60;;;;;;5034623;28;20365;-76
2021/12/07 00:46:53;;;;;;;0.00;0.00;;;11.00;89.60;;;;;;5033416;28;20029;-76
2021/12/07 00:49:20;;;;;;;0.00;0.00;;;11.00;89.60;;;;;;5034341;28;20095;-76
2021/12/07 00:51:45;;;;;;;0.00;0.00;;;11.10;89.80;;;;;;5033754;28;20428;-76
2021/12/07 00:54:12;;;;;;;0.00;0.00;;;11.10;89.60;;;;;;5034241;28;20026;-76
2021/12/07 00:56:38;;;;;;;0.00;0.00;;;11.10;89.40;;;;;;5033656;28;20449;-76
2021/12/07 00:59:04;;;;;;;0.00;0.00;;;11.10;89.80;;;;;;5049337;28;20038;-76
2021/12/07 01:01:31;;;;;;;0.00;0.00;;;11.10;89.30;;;;;;5032790;28;20029;-76
2021/12/07 01:03:57;;;;;;;0.00;0.00;;;11.10;90.00;;;;;;5032421;28;20072;-76
2021/12/07 01:25:34;;;;;;;0.00;0.00;;;11.20;89.10;;;;;;5033718;28;19913;-77
2021/12/07 01:28:06;;;;;;;0.00;0.00;;;11.20;89.30;;;;;;5032534;28;20025;-76
2021/12/07 01:30:47;;;;;;;0.00;0.00;;;11.20;89.10;;;;;;5033527;28;20034;-76
2021/12/07 01:39:36;;;;;;;0.00;0.00;;;11.20;89.10;;;;;;5034371;28;20233;-75
2021/12/07 01:59:52;;;;;;;0.32;0.13;;;11.30;89.60;;;;;;5037156;28;20045;-76
2021/12/07 02:02:20;;;;;;;0.10;0.10;;;11.40;89.40;;;;;;5036165;28;20057;-76
2021/12/07 02:04:46;;;;;;;0.22;0.20;;;11.40;89.00;;;;;;5037602;28;20045;-75
2021/12/07 02:07:13;;;;;;;0.00;0.00;;;11.50;89.00;;;;;;5037272;28;20048;-75
2021/12/07 02:09:43;;;;;;;0.20;0.10;;;11.50;88.90;;;;;;5037277;28;20025;-76
2021/12/07 02:12:11;;;;;;;0.08;0.08;;;11.50;88.90;;;;;;5035892;28;20057;-75
2021/12/07 02:14:37;;;;;;;0.00;0.00;;;11.60;88.50;;;;;;5035852;28;20116;-76
2021/12/07 02:17:09;;;;;;;0.10;0.10;;;11.60;88.30;;;;;;5037633;28;20057;-76
2021/12/07 02:19:36;;;;;;;0.20;0.00;;;11.60;88.30;;;;;;5037135;28;20381;-76
2021/12/07 02:22:02;;;;;;;0.10;0.10;;;11.60;88.40;;;;;;5037383;28;20022;-76
2021/12/07 02:24:29;;;;;;;0.20;0.10;;;11.60;88.30;;;;;;5037034;28;20036;-77
2021/12/07 02:26:56;;;;;;;0.28;0.20;;;11.70;88.30;;;;;;5052443;28;20103;-76
2021/12/07 02:29:23;;;;;;;0.65;0.10;;;11.70;88.20;;;;;;5036859;28;20037;-76
2021/12/07 02:31:51;;;;;;;0.57;0.45;;;11.70;88.00;;;;;;5037123;28;20053;-77
2021/12/07 02:34:17;;;;;;;0.20;0.13;;;11.70;87.90;;;;;;5036616;28;20033;-76
2021/12/07 02:36:43;;;;;;;0.43;0.10;;;11.70;87.70;;;;;;5035480;28;20033;-76
2021/12/07 02:39:10;;;;;;;0.60;0.60;;;11.80;87.90;;;;;;5035334;28;20456;-76
2021/12/07 02:41:37;;;;;;;0.00;0.00;;;11.70;87.70;;;;;;5036539;28;20029;-76
2021/12/07 02:44:06;;;;;;;0.00;0.00;;;11.70;87.70;;;;;;5037106;28;20095;-76
2021/12/07 02:46:36;;;;;;;0.00;0.00;;;11.70;88.10;;;;;;5037008;28;20040;-76
2021/12/07 02:49:04;;;;;;;0.00;0.00;;;11.80;88.20;;;;;;5036570;28;20033;-76
2021/12/07 02:51:30;;;;;;;0.00;0.00;;;11.80;88.00;;;;;;5035458;28;20025;-76
2021/12/07 02:53:56;;;;;;;0.00;0.00;;;11.80;87.80;;;;;;5035925;28;20100;-76
2021/12/07 02:56:23;;;;;;;0.00;0.00;;;11.80;87.80;;;;;;5036128;28;20392;-76
2021/12/07 02:58:49;;;;;;;0.00;0.00;;;11.90;87.90;;;;;;5036551;28;20075;-76
2021/12/07 03:01:22;;;;;;;0.10;0.10;;;11.80;87.90;;;;;;5035236;28;20029;-75
2021/12/07 03:04:13;;;;;;;0.20;0.20;;;11.80;88.00;;;;;;5035366;28;20515;-76
2021/12/07 03:26:10;;;;;;;0.22;0.22;;;11.90;87.40;;;;;;5016537;28;20040;-76
2021/12/07 03:28:41;;;;;;;0.75;0.20;;;11.80;87.90;;;;;;5031234;28;20386;-76
2021/12/07 03:31:07;;;;;;;0.90;0.90;;;11.80;87.80;;;;;;5016666;28;20030;-76
2021/12/07 03:33:34;;;;;;;0.63;0.60;;;11.80;87.70;;;;;;5035712;28;20028;-76
2021/12/07 03:36:00;;;;;;;0.93;0.73;;;11.80;87.80;;;;;;5035611;28;20494;-76
2021/12/07 03:38:26;;;;;;;1.20;0.95;;;11.80;87.80;;;;;;5035510;28;20061;-77
2021/12/07 03:40:52;;;;;;;0.95;0.82;;;11.80;87.70;;;;;;5034168;28;20056;-76
2021/12/07 03:43:18;;;;;;;1.10;0.88;;;11.80;87.60;;;;;;5035666;28;20024;-76
2021/12/07 03:45:43;;;;;;;1.55;1.40;;;11.80;87.60;;;;;;5034407;28;20032;-76
2021/12/07 03:48:10;;;;;;;1.83;1.30;;;11.80;87.60;;;;;;5035591;28;20032;-77
2021/12/07 03:50:36;;;;;;;1.63;1.17;;;11.80;87.50;;;;;;5034054;28;20021;-76
2021/12/07 03:53:03;;;;;;;1.98;1.00;;;11.70;87.50;;;;;;5034066;28;20037;-76
2021/12/07 03:55:28;;;;;;;2.00;1.80;;;11.70;87.40;;;;;;5035687;28;20029;-77
2021/12/07 03:57:54;;;;;;;1.65;1.30;;;11.70;87.50;;;;;;5035524;28;20424;-77
2021/12/07 04:00:23;;;;;;;1.48;1.02;;;11.70;87.70;;;;;;5034785;28;20040;-77
2021/12/07 04:02:50;;;;;;;2.08;1.58;;;11.60;87.70;;;;;;5034679;28;20033;-76
2021/12/07 04:05:19;;;;;;;1.38;1.00;;;11.60;88.00;;;;;;5034195;28;20025;-76
2021/12/07 04:07:45;;;;;;;0.38;0.38;;;11.70;87.90;;;;;;5034173;28;20021;-76
2021/12/07 04:10:15;;;;;;;1.65;1.38;;;11.70;88.20;;;;;;5035583;28;20108;-75
2021/12/07 04:12:41;;;;;;;2.40;1.40;;;11.70;88.00;;;;;;5034037;28;20516;-76
2021/12/07 04:15:10;;;;;;;1.98;1.52;;;11.70;88.10;;;;;;5034910;28;20385;-77
2021/12/07 04:17:36;;;;;;;1.08;0.55;;;11.70;88.20;;;;;;5033585;28;20026;-75
2021/12/07 04:20:05;;;;;;;2.38;1.60;;;11.70;88.30;;;;;;5032591;28;20092;-75
2021/12/07 04:22:30;;;;;;;3.58;2.08;;;11.70;88.00;;;;;;5033164;28;20027;-75
2021/12/07 04:24:56;;;;;;;2.65;2.15;;;11.70;87.90;;;;;;5034180;28;20100;-76
2021/12/07 04:27:22;;;;;;;2.53;1.77;;;11.70;87.90;;;;;;5034944;28;20036;-76
2021/12/07 04:29:48;;;;;;;2.47;1.88;;;11.70;88.10;;;;;;5034625;28;20431;-77
2021/12/07 04:32:13;;;;;;;3.75;2.17;;;11.60;88.10;;;;;;5034411;28;20037;-76
2021/12/07 04:34:39;;;;;;;2.65;1.80;;;11.60;88.20;;;;;;5032946;28;20022;-76
2021/12/07 04:37:05;;;;;;;2.13;1.58;;;11.60;88.50;;;;;;5049468;28;20025;-77
2021/12/07 04:39:31;;;;;;;2.65;1.85;;;11.60;88.60;;;;;;5034126;28;20037;-77
2021/12/07 04:41:57;;;;;;;1.77;0.98;;;11.70;88.70;;;;;;5033917;28;20527;-76
2021/12/07 04:44:24;;;;;;;1.98;1.52;;;11.70;88.80;;;;;;5034449;28;20052;-76
2021/12/07 04:47:10;;;;;;;2.85;1.90;;;11.80;88.90;;;;;;5034298;28;20025;-77
2021/12/07 04:50:19;;;;;;;2.30;1.67;;;11.80;88.60;;;;;;5034293;28;20029;-76
2021/12/07 04:57:38;;;;;;;2.25;1.77;;;11.80;88.10;;;;;;5033850;28;20032;-76
2021/12/07 04:58:27;;;;;;;0.90;0.73;;;11.80;88.10;;;;;;5033753;28;20400;-76
2021/12/07 05:00:54;;;;;;;0.73;0.60;;;11.80;88.10;;;;;;5032939;28;20033;-75
2021/12/07 05:03:20;;;;;;;0.45;0.45;;;11.80;88.00;;;;;;5033432;28;20049;-76
2021/12/07 05:05:51;;;;;;;2.15;1.45;;;11.80;88.20;;;;;;5033592;28;20025;-77
2021/12/07 05:08:32;;;;;;;1.45;1.00;;;11.70;88.00;;;;;;5033662;28;20041;-75
2021/12/07 05:13:35;;;;;;;1.17;1.00;;;11.70;88.70;;;;;;5033817;28;20025;-77
2021/12/07 05:18:55;;;;;;;1.73;1.05;;;11.70;88.40;;;;;;5033821;28;20055;-76
2021/12/07 05:24:10;;;;;;;0.63;0.50;;;11.70;88.10;;;;;;5033131;28;20079;-77
2021/12/07 05:37:55;;;;;;;1.52;1.42;;;11.70;88.70;;;;;;5037269;28;20099;-77
2021/12/07 05:40:35;;;;;;;1.33;1.23;;;11.70;88.50;;;;;;5037374;28;20093;-78
2021/12/07 05:43:02;;;;;;;1.17;0.75;;;11.70;88.30;;;;;;5037287;28;20112;-78
2021/12/07 05:45:32;;;;;;;0.30;0.30;;;11.70;88.50;;;;;;5036775;28;20021;-76
2021/12/07 05:47:59;;;;;;;0.10;0.10;;;11.60;88.70;;;;;;5037153;28;20025;-76
2021/12/07 05:50:28;;;;;;;0.10;0.10;;;11.60;89.10;;;;;;5036866;28;20044;-76
2021/12/07 05:52:54;;;;;;;0.32;0.32;;;11.60;89.30;;;;;;5035652;28;20022;-76
2021/12/07 05:55:20;;;;;;;0.00;0.00;;;11.70;89.30;;;;;;5036694;28;20021;-77
2021/12/07 05:57:47;;;;;;;0.73;0.45;;;11.70;89.30;;;;;;5037300;28;20097;-77
2021/12/07 06:00:25;;;;;;;0.40;0.40;;;11.70;89.20;;;;;;5036660;28;20041;-78
2021/12/07 06:02:53;;;;;;;0.60;0.20;;;11.70;89.00;;;;;;5036567;28;20026;-76
2021/12/07 06:05:20;;;;;;;0.17;0.17;;;11.70;89.30;;;;;;5035724;28;20139;-76
2021/12/07 06:07:45;;;;;;;0.45;0.30;;;11.80;89.20;;;;;;5036430;28;20103;-80
2021/12/07 06:10:11;;;;;;;0.20;0.10;;;11.70;89.30;;;;;;5036301;28;20080;-77
2021/12/07 06:12:37;;;;;;;0.63;0.57;;;11.80;89.40;;;;;;5036328;28;20477;-77
2021/12/07 06:15:03;;;;;;;0.00;0.00;;;11.80;89.50;;;;;;5036368;28;20392;-76
2021/12/07 06:17:29;;;;;;;0.00;0.00;;;11.80;89.70;;;;;;5036373;28;20053;-76
2021/12/07 06:19:55;;;;;;;0.08;0.08;;;11.80;89.90;;;;;;5036647;28;20068;-77
2021/12/07 06:22:20;;;;;;;0.00;0.00;;;11.90;89.80;;;;;;5036412;28;20021;-76
2021/12/07 06:24:46;;;;;;;0.10;0.00;;;11.90;89.50;;;;;;5036146;28;20021;-77
2021/12/07 06:27:12;;;;;;;0.00;0.00;;;11.90;89.40;;;;;;5036601;28;20036;-76
2021/12/07 06:29:37;;;;;;;0.00;0.00;;;11.90;89.30;;;;;;5036796;28;20472;-76
2021/12/07 06:32:05;;;;;;;0.00;0.00;;;11.80;89.50;;;;;;5036066;28;20022;-76
2021/12/07 06:34:31;;;;;;;0.10;0.00;;;11.80;89.70;;;;;;5036248;28;20347;-77
2021/12/07 06:36:57;;;;;;;0.00;0.00;;;11.80;89.90;;;;;;5036625;28;20032;-76
2021/12/07 06:39:23;;;;;;;0.00;0.00;;;11.80;89.80;;;;;;5034789;28;20075;-76
2021/12/07 06:41:49;;;;;;;0.00;0.00;;;11.80;90.00;;;;;;5034825;28;20037;-77
2021/12/07 06:44:15;;;;;;;0.00;0.00;;;11.70;90.00;;;;;;5034980;28;20032;-77
2021/12/07 06:46:41;;;;;;;0.00;0.00;;;11.70;90.00;;;;;;5036049;28;20056;-76
2021/12/07 06:49:07;;;;;;;0.00;0.00;;;11.70;90.20;;;;;;5036209;28;20085;-77
2021/12/07 06:51:32;;;;;;;0.00;0.00;;;11.70;90.20;;;;;;5035996;28;20065;-77
2021/12/07 06:53:58;;;;;;;0.00;0.00;;;11.70;90.10;;;;;;5035362;28;20025;-76
2021/12/07 06:56:28;;;;;;;0.00;0.00;;;11.70;90.20;;;;;;5035974;28;20105;-78
2021/12/07 06:58:54;;;;;;;0.00;0.00;;;11.70;90.30;;;;;;5035577;28;20045;-76
2021/12/07 07:01:19;;;;;;;0.00;0.00;;;11.70;90.50;;;;;;5035634;28;20499;-76
2021/12/07 07:03:46;;;;;;;0.00;0.00;;;11.70;90.60;;;;;;5035407;28;20077;-78
2021/12/07 07:06:11;;;;;;;0.00;0.00;;;11.70;90.50;;;;;;5035755;28;20033;-78
2021/12/07 07:08:37;;;;;;;0.00;0.00;;;11.70;90.40;;;;;;5035230;28;20153;-79
2021/12/07 07:11:06;;;;;;;0.00;0.00;;;11.70;90.50;;;;;;5034205;28;20025;-78
2021/12/07 07:13:32;;;;;;;0.00;0.00;;;11.70;90.70;;;;;;5034214;28;20068;-77
2021/12/07 07:15:58;;;;;;;0.00;0.00;;;11.80;91.00;;;;;;5035058;28;20029;-79
2021/12/07 07:18:26;;;;;;;0.00;0.00;;;11.90;91.10;;;;;;5033837;28;20057;-78
2021/12/07 07:20:52;;;;;;;0.00;0.00;;;11.90;91.10;;;;;;5033747;28;20525;-79
2021/12/07 07:23:18;;;;;;;0.00;0.00;;;12.00;91.00;;;;;;5034819;28;20033;-77
2021/12/07 07:25:45;;;;;;;0.00;0.00;;;12.00;91.00;;;;;;5033771;28;20025;-79
2021/12/07 07:28:11;;;;;;;0.00;0.00;;;12.10;91.00;;;;;;5034897;28;20033;-78
2021/12/07 07:30:37;;;;;;;0.00;0.00;;;12.20;90.80;;;;;;5034552;28;20123;-78
2021/12/07 07:33:03;;;;;;;0.00;0.00;;;12.20;90.70;;;;;;5035073;28;20517;-77
2021/12/07 07:35:29;;;;;;;0.00;0.00;;;12.20;90.50;;;;;;5034344;28;20079;-77
2021/12/07 07:37:55;;;;;;;0.00;0.00;;;12.30;90.40;;;;;;5034631;28;20017;-78
2021/12/07 07:40:22;;;;;;;0.00;0.00;;;12.30;90.30;;;;;;5035057;28;20045;-78
2021/12/07 07:42:49;;;;;;;0.00;0.00;;;12.30;90.10;;;;;;5034952;28;20025;-79
2021/12/07 07:45:15;;;;;;;0.00;0.00;;;12.30;90.20;;;;;;5034840;28;20404;-79
2021/12/07 07:47:41;;;;;;;0.00;0.00;;;12.30;90.30;;;;;;5035174;28;20129;-79
2021/12/07 07:50:08;;;;;;;0.00;0.00;;;12.30;90.50;;;;;;5034582;28;20492;-79
2021/12/07 07:52:35;;;;;;;0.00;0.00;;;12.40;90.50;;;;;;5034411;28;20033;-79
2021/12/07 07:55:00;;;;;;;0.00;0.00;;;12.40;90.40;;;;;;5033041;28;20103;-80
2021/12/07 07:57:27;;;;;;;0.00;0.00;;;12.50;90.50;;;;;;5033804;28;20048;-79
2021/12/07 07:59:54;;;;;;;0.00;0.00;;;12.50;90.40;;;;;;5033728;28;20044;-80
2021/12/07 08:02:20;;;;;;;0.00;0.00;;;12.60;90.20;;;;;;5033716;28;20071;-79
2021/12/07 08:04:47;;;;;;;0.00;0.00;;;12.60;90.00;;;;;;5034498;28;20045;-80
2021/12/07 08:07:13;;;;;;;0.00;0.00;;;12.70;89.70;;;;;;5034213;28;20035;-77
2021/12/07 08:09:39;;;;;;;0.10;0.10;;;12.70;89.90;;;;;;5034917;28;20136;-77
2021/12/07 08:12:06;;;;;;;0.00;0.00;;;12.70;89.80;;;;;;5031290;28;20041;-80
2021/12/07 08:14:32;;;;;;;0.00;0.00;;;12.80;89.70;;;;;;5049842;28;20447;-81
2021/12/07 08:16:59;;;;;;;0.00;0.00;;;12.80;89.90;;;;;;5050047;28;20033;-80
2021/12/07 08:19:25;;;;;;;0.00;0.00;;;12.80;89.60;;;;;;5032798;28;20125;-79
2021/12/07 08:21:51;;;;;;;0.00;0.00;;;12.90;89.50;;;;;;5034065;28;20407;-80
2021/12/07 08:24:17;;;;;;;0.00;0.00;;;12.90;89.00;;;;;;5033486;28;20022;-80
2021/12/07 08:26:43;;;;;;;0.00;0.00;;;12.90;88.70;;;;;;5033981;28;20030;-81
2021/12/07 08:29:09;;;;;;;0.00;0.00;;;12.90;88.60;;;;;;5034363;28;20030;-80
2021/12/07 08:31:36;;;;;;;0.00;0.00;;;12.90;88.60;;;;;;5034428;28;20022;-80
2021/12/07 08:34:02;;;;;;;0.00;0.00;;;12.90;88.50;;;;;;5032974;28;20037;-79
2021/12/07 08:36:29;;;;;;;0.00;0.00;;;12.90;88.40;;;;;;5034240;28;20028;-79
2021/12/07 08:38:55;;;;;;;0.05;0.00;;;12.90;89.00;;;;;;5033998;28;20026;-81
2021/12/07 08:41:21;;;;;;;0.00;0.00;;;12.90;89.00;;;;;;5033898;28;20465;-79
2021/12/07 08:43:47;;;;;;;0.00;0.00;;;12.90;89.00;;;;;;5034282;28;20112;-79
2021/12/07 08:46:14;;;;;;;0.00;0.00;;;13.00;88.80;;;;;;5034221;28;20021;-80
2021/12/07 08:48:42;;;;;;;0.00;0.00;;;13.00;88.30;;;;;;5031916;28;20061;-78
2021/12/07 08:51:11;;;;;;;0.00;0.00;;;13.00;88.20;;;;;;5030979;28;20091;-78
2021/12/07 08:53:44;;;;;;;0.00;0.00;;;12.90;87.90;;;;;;5047944;28;20124;-79
2021/12/07 09:01:39;;;;;;;0.00;0.00;;;12.80;88.00;;;;;;5031193;28;20412;-79
2021/12/07 09:04:05;;;;;;;0.00;0.00;;;12.70;88.20;;;;;;5032114;28;20188;-81
2021/12/07 09:06:31;;;;;;;0.00;0.00;;;12.70;88.90;;;;;;5031824;28;20021;-80
2021/12/07 09:12:20;;;;;;;0.00;0.00;;;12.90;89.10;;;;;;5049717;28;20040;-78
2021/12/07 09:14:47;;;;;;;0.00;0.00;;;12.90;88.70;;;;;;5051742;28;20047;-80
2021/12/07 09:17:14;;;;;;;0.00;0.00;;;12.90;88.30;;;;;;5052101;28;20411;-79
2021/12/07 09:19:40;;;;;;;0.00;0.00;;;12.90;88.00;;;;;;5051529;28;20078;-79
2021/12/07 09:22:07;;;;;;;0.00;0.00;;;12.80;88.00;;;;;;5050136;28;20075;-79
2021/12/07 09:24:33;;;;;;;0.00;0.00;;;12.80;88.30;;;;;;5051622;28;20035;-79
2021/12/07 09:27:00;;;;;;;0.00;0.00;;;12.80;88.20;;;;;;5050266;28;20082;-79
2021/12/07 09:29:26;;;;;;;0.00;0.00;;;12.70;88.10;;;;;;5051745;28;20029;-79
2021/12/07 09:31:52;;;;;;;0.00;0.00;;;12.70;88.70;;;;;;5052799;28;20044;-78
2021/12/07 09:34:18;;;;;;;0.00;0.00;;;12.70;89.10;;;;;;5048263;28;20025;-78
2021/12/07 09:36:44;;;;;;;0.00;0.00;;;12.70;89.20;;;;;;5033049;28;20083;-78
2021/12/07 09:39:13;;;;;;;0.00;0.00;;;12.70;89.80;;;;;;5031502;28;20025;-77
2021/12/07 09:41:39;;;;;;;0.00;0.00;;;12.80;89.90;;;;;;5031831;28;20380;-77
2021/12/07 09:44:06;;;;;;;0.00;0.00;;;12.80;89.70;;;;;;5048339;28;20116;-79
2021/12/07 09:46:33;;;;;;;0.00;0.00;;;12.80;89.20;;;;;;5031545;28;20457;-79
2021/12/07 09:48:58;;;;;;;0.00;0.00;;;12.80;89.00;;;;;;5032692;28;20029;-78
2021/12/07 09:51:27;;;;;;;0.00;0.00;;;12.80;89.00;;;;;;5031406;28;20485;-78
2021/12/07 09:53:53;;;;;;;0.00;0.00;;;12.90;88.90;;;;;;5033228;28;20104;-77
2021/12/07 09:56:22;;;;;;;0.00;0.00;;;12.90;88.80;;;;;;5031590;28;20021;-77
2021/12/07 09:58:51;;;;;;;0.00;0.00;;;12.80;88.70;;;;;;5032942;28;20029;-78
2021/12/07 10:01:17;;;;;;;0.00;0.00;;;12.90;88.90;;;;;;5043220;28;20069;-79
2021/12/07 10:03:43;;;;;;;0.00;0.00;;;12.80;88.70;;;;;;5052389;28;20103;-79
2021/12/07 10:06:09;;;;;;;0.00;0.00;;;12.80;89.00;;;;;;5052924;28;20028;-78
2021/12/07 10:08:36;;;;;;;0.00;0.00;;;12.80;89.20;;;;;;5051794;28;20055;-77
2021/12/07 10:11:04;;;;;;;0.00;0.00;;;12.80;89.60;;;;;;5051798;28;20120;-79
2021/12/07 10:13:31;;;;;;;0.00;0.00;;;12.90;89.50;;;;;;5052922;28;20021;-78
2021/12/07 10:16:00;;;;;;;0.00;0.00;;;13.00;89.50;;;;;;5051819;28;20029;-78
2021/12/07 10:18:32;;;;;;;0.00;0.00;;;13.10;89.50;;;;;;5047124;28;20101;-80
2021/12/07 10:21:00;;;;;;;0.00;0.00;;;13.10;89.30;;;;;;5055756;28;20033;-80
2021/12/07 10:23:42;;;;;;;0.00;0.00;;;13.20;89.40;;;;;;5050580;28;20029;-79
2021/12/07 10:26:14;;;;;;;0.00;0.00;;;13.20;89.00;;;;;;5053356;28;20052;-80
2021/12/07 10:29:06;;;;;;;0.03;0.00;;;13.30;88.70;;;;;;5034635;28;20031;-81
2021/12/07 10:31:42;;;;;;;0.00;0.00;;;13.30;88.90;;;;;;5053049;28;20029;-81
2021/12/07 10:34:33;;;;;;;0.00;0.00;;;13.30;87.70;;;;;;5054207;28;20380;-81
2021/12/07 10:37:12;;;;;;;0.00;0.00;;;13.30;87.80;;;;;;5055896;28;20029;-80
2021/12/07 10:39:55;;;;;;;0.00;0.00;;;13.30;87.90;;;;;;5054019;28;20025;-79
2021/12/07 10:42:22;;;;;;;0.00;0.00;;;13.30;87.60;;;;;;5039122;28;20040;-79
2021/12/07 10:44:49;;;;;;;0.00;0.00;;;13.40;87.90;;;;;;5053822;28;20033;-79
2021/12/07 10:47:17;;;;;;;0.00;0.00;;;13.40;87.70;;;;;;5052727;28;20075;-78
2021/12/07 10:49:49;;;;;;;0.00;0.00;;;13.30;87.60;;;;;;5056018;28;20025;-79
2021/12/07 10:52:28;;;;;;;0.00;0.00;;;13.30;87.30;;;;;;5049193;28;20073;-80
2021/12/07 10:55:03;;;;;;;0.00;0.00;;;13.30;87.40;;;;;;5051504;28;20060;-79
2021/12/07 10:57:51;;;;;;;0.00;0.00;;;13.30;87.50;;;;;;5048777;28;20029;-79
2021/12/07 11:00:20;;;;;;;0.00;0.00;;;13.30;88.10;;;;;;5048321;28;20447;-82
2021/12/07 11:03:00;;;;;;;0.00;0.00;;;13.30;87.60;;;;;;5066482;28;20548;-80
2021/12/07 11:05:46;;;;;;;0.00;0.00;;;13.30;87.40;;;;;;5065138;28;20373;-78
2021/12/07 11:08:14;;;;;;;0.00;0.00;;;13.30;87.40;;;;;;5063935;28;20372;-79
2021/12/07 11:10:45;;;;;;;0.00;0.00;;;13.30;87.30;;;;;;5074933;28;20033;-79
2021/12/07 11:13:24;;;;;;;0.00;0.00;;;13.30;87.70;;;;;;5074397;28;20077;-79
2021/12/07 11:16:04;;;;;;;0.00;0.00;;;13.30;87.90;;;;;;5073968;28;20039;-79
2021/12/07 11:18:36;;;;;;;0.00;0.00;;;13.30;87.60;;;;;;5075714;28;20388;-79
2021/12/07 11:21:05;;;;;;;0.00;0.00;;;13.30;87.50;;;;;;5075108;28;20043;-79
2021/12/07 11:23:35;;;;;;;0.00;0.00;;;13.30;87.40;;;;;;5073759;28;20020;-79
2021/12/07 11:31:51;;;;;;;0.00;0.00;;;13.20;87.20;;;;;;5075270;28;20082;-80
2021/12/07 11:34:23;;;;;;;0.00;0.00;;;13.20;87.50;;;;;;5073519;28;20142;-81
2021/12/07 11:36:52;;;;;;;0.00;0.00;;;13.20;87.40;;;;;;5073415;28;20028;-82
2021/12/07 11:39:50;;;;;;;0.00;0.00;;;13.20;87.60;;;;;;5074674;28;20033;-79
2021/12/07 11:42:35;;;;;;;0.00;0.00;;;13.20;87.50;;;;;;5061547;28;20032;-79
2021/12/07 11:45:12;;;;;;;0.00;0.00;;;13.20;87.40;;;;;;5054495;28;20551;-78
2021/12/07 11:48:05;;;;;;;0.00;0.00;;;13.20;87.50;;;;;;5053722;28;20079;-79
2021/12/07 11:50:42;;;;;;;0.00;0.00;;;13.20;87.70;;;;;;5052951;28;20033;-79
2021/12/07 11:53:15;;;;;;;0.00;0.00;;;13.20;87.50;;;;;;5054773;28;20057;-79
2021/12/07 11:55:44;;;;;;;0.00;0.00;;;13.30;87.80;;;;;;5053914;28;20035;-79
2021/12/07 11:58:11;;;;;;;0.00;0.00;;;13.20;87.70;;;;;;5054926;28;20033;-79
2021/12/07 12:00:57;;;;;;;0.00;0.00;;;13.30;87.80;;;;;;5052580;28;20438;-79
2021/12/07 12:03:25;;;;;;;0.00;0.00;;;13.30;87.80;;;;;;5052813;28;20091;-78
2021/12/07 12:05:53;;;;;;;0.00;0.00;;;13.30;87.50;;;;;;5055017;28;20027;-79
2021/12/07 12:08:20;;;;;;;0.00;0.00;;;13.30;87.30;;;;;;5053745;28;20025;-79
2021/12/07 12:11:08;;;;;;;0.00;0.00;;;13.30;87.50;;;;;;5054423;28;20067;-78
2021/12/07 12:13:56;;;;;;;0.00;0.00;;;13.30;87.40;;;;;;5053433;28;20124;-78
2021/12/07 12:16:42;;;;;;;0.00;0.00;;;13.30;87.70;;;;;;5053635;28;20382;-79
2021/12/07 12:19:29;;;;;;;0.00;0.00;;;13.30;88.00;;;;;;5054862;28;20024;-79
2021/12/07 12:22:05;;;;;;;0.00;0.00;;;13.30;87.90;;;;;;5054601;28;20020;-78
2021/12/07 12:24:54;;;;;;;0.00;0.00;;;13.20;87.60;;;;;;5054991;28;20021;-78
2021/12/07 12:27:38;;;;;;;0.00;0.00;;;13.20;87.90;;;;;;5053653;28;20094;-79
2021/12/07 12:30:36;;;;;;;0.00;0.00;;;13.20;87.80;;;;;;5037634;28;20174;-80
2021/12/07 12:33:08;;;;;;;0.00;0.00;;;13.20;87.90;;;;;;5054463;28;20125;-80
2021/12/07 12:35:42;;;;;;;0.00;0.00;;;13.20;87.90;;;;;;5053657;28;20341;-78
2021/12/07 12:38:18;;;;;;;0.00;0.00;;;13.30;88.00;;;;;;5053009;28;20048;-78
2021/12/07 12:40:57;;;;;;;0.00;0.00;;;13.30;87.90;;;;;;5053522;28;20376;-78
2021/12/07 12:43:44;;;;;;;0.00;0.00;;;13.30;88.10;;;;;;5053476;28;20036;-79
2021/12/07 12:46:13;;;;;;;0.00;0.00;;;13.30;88.10;;;;;;5054269;28;20036;-80
2021/12/07 12:48:48;;;;;;;0.00;0.00;;;13.30;88.20;;;;;;5054673;28;20033;-78
2021/12/07 12:51:18;;;;;;;0.00;0.00;;;13.30;88.70;;;;;;5036439;28;20036;-78
2021/12/07 12:53:46;;;;;;;0.00;0.00;;;13.30;88.20;;;;;;5054128;28;20075;-79
2021/12/07 12:56:23;;;;;;;0.00;0.00;;;13.30;88.20;;;;;;5052859;28;20029;-80
2021/12/07 12:58:55;;;;;;;0.00;0.00;;;13.30;88.30;;;;;;5053312;28;20112;-79
2021/12/07 13:01:29;;;;;;;0.00;0.00;;;13.30;88.10;;;;;;5053980;28;20048;-79
2021/12/07 13:04:13;;;;;;;0.00;0.00;;;13.30;88.00;;;;;;5053749;28;20049;-78
2021/12/07 13:06:51;;;;;;;0.00;0.00;;;13.30;88.00;;;;;;5054528;28;20091;-79
2021/12/07 13:09:22;;;;;;;0.00;0.00;;;13.40;88.20;;;;;;5053206;28;20457;-79
2021/12/07 13:12:32;;;;;;;0.00;0.00;;;13.30;88.20;;;;;;5053848;28;20096;-80
2021/12/07 13:15:03;;;;;;;0.00;0.00;;;13.40;88.30;;;;;;5053038;28;20044;-78
2021/12/07 13:17:32;;;;;;;0.00;0.00;;;13.30;88.00;;;;;;5053607;28;20033;-79
2021/12/07 13:20:15;;;;;;;0.05;0.05;;;13.30;88.40;;;;;;5053700;28;20488;-78
2021/12/07 13:22:45;;;;;;;0.00;0.00;;;13.30;88.40;;;;;;5054133;28;20026;-79
2021/12/07 13:25:16;;;;;;;0.00;0.00;;;13.30;88.00;;;;;;5053716;28;20033;-78
2021/12/07 13:28:04;;;;;;;0.00;0.00;;;13.20;88.10;;;;;;5052730;28;20376;-78
2021/12/07 13:30:56;;;;;;;0.00;0.00;;;13.20;87.50;;;;;;5052299;28;20067;-78
2021/12/07 13:33:38;;;;;;;0.00;0.00;;;13.10;87.30;;;;;;5052552;28;20041;-79
2021/12/07 13:36:40;;;;;;;0.00;0.00;;;13.00;86.40;;;;;;5053185;28;20025;-79
2021/12/07 13:39:27;;;;;;;0.00;0.00;;;12.90;86.10;;;;;;5053737;28;20340;-79
2021/12/07 13:42:02;;;;;;;0.00;0.00;;;12.80;84.60;;;;;;5053352;28;20026;-81
2021/12/07 13:44:32;;;;;;;0.00;0.00;;;12.80;85.00;;;;;;5053486;28;20376;-80
2021/12/07 13:47:22;;;;;;;0.00;0.00;;;12.80;84.70;;;;;;5053516;28;20029;-77
2021/12/07 13:50:09;;;;;;;0.00;0.00;;;12.70;84.20;;;;;;5053772;28;20098;-79
2021/12/07 13:52:40;;;;;;;0.00;0.00;;;12.60;82.50;;;;;;5053775;28;20429;-78
2021/12/07 13:55:14;;;;;;;0.00;0.00;;;12.60;83.00;;;;;;5057045;28;20032;-78
2021/12/07 13:57:42;;;;;;;0.00;0.00;;;12.50;81.90;;;;;;5056597;28;20419;-79
2021/12/07 14:00:10;;;;;;;0.00;0.00;;;12.50;82.10;;;;;;5056665;28;20119;-78
2021/12/07 14:02:39;;;;;;;0.00;0.00;;;12.40;82.10;;;;;;5057486;28;20025;-77
2021/12/07 14:05:19;;;;;;;0.00;0.00;;;12.40;82.20;;;;;;5055620;28;20029;-77
2021/12/07 14:07:47;;;;;;;0.00;0.00;;;12.30;82.20;;;;;;5056264;28;20060;-79
2021/12/07 14:10:21;;;;;;;0.00;0.00;;;12.30;82.10;;;;;;5057848;28;20025;-78
2021/12/07 14:12:49;;;;;;;0.00;0.00;;;12.20;81.70;;;;;;5055557;28;20052;-80
2021/12/07 14:15:24;;;;;;;0.00;0.00;;;12.10;81.50;;;;;;5055812;28;20036;-78
2021/12/07 14:17:57;;;;;;;0.00;0.00;;;12.00;81.40;;;;;;5057172;28;20032;-78
2021/12/07 14:20:35;;;;;;;0.00;0.00;;;11.90;81.40;;;;;;5057124;28;20468;-78
2021/12/07 14:23:18;;;;;;;0.00;0.00;;;11.80;80.50;;;;;;5056460;28;20033;-79
2021/12/07 14:25:50;;;;;;;0.00;0.00;;;11.80;80.90;;;;;;5056281;28;20021;-79
2021/12/07 14:28:30;;;;;;;0.00;0.00;;;11.70;80.60;;;;;;5056082;28;20036;-78
2021/12/07 14:31:21;;;;;;;0.00;0.00;;;11.70;80.60;;;;;;5056561;28;20045;-79
2021/12/07 14:33:48;;;;;;;0.00;0.00;;;11.60;80.60;;;;;;5056513;28;20071;-79
2021/12/07 14:36:19;;;;;;;0.00;0.00;;;11.60;80.70;;;;;;5055203;28;20021;-78
2021/12/07 14:38:52;;;;;;;0.00;0.00;;;11.50;81.50;;;;;;5056452;28;20036;-78
2021/12/07 14:41:20;;;;;;;0.00;0.00;;;11.50;80.90;;;;;;5054848;28;20087;-79
2021/12/07 14:43:47;;;;;;;0.00;0.00;;;11.40;80.40;;;;;;5056121;28;20021;-78
2021/12/07 14:46:15;;;;;;;0.00;0.00;;;11.40;80.30;;;;;;5055575;28;20025;-78
2021/12/07 14:48:43;;;;;;;0.00;0.00;;;11.40;80.30;;;;;;5055990;28;20033;-79
2021/12/07 14:51:17;;;;;;;0.00;0.00;;;11.30;80.40;;;;;;5055910;28;20602;-78